Timber Mountain, Nevada Weather observations

Data are for 10 minute period ending at time listed.
 Day   Time   Solar   Ave.   Ave.  Ave.  Vector  Max.   Baro.   Total    
  of    of     Rad.   Air    Rel.  Wind   Wind   Wind  Press.  Precip.   
Year   Day            Temp.  Hum.  Speed  Dir.   Gust                    
2015   (PST)  Kw/m2    F      %     mph   deg.    mph    mb.     in.     
-------------------------------------------------------------------------
 141    7:00   0.26   53.0    31    5.2   128    12.1   807.3    0.00 
 141    8:00   0.47   55.6    29    7.7   143    15.2   807.2    0.00 
 141    9:00   0.64   57.5    25    8.4   131    25.3   807.0    0.00 
 141   10:00   0.80   58.0    26   11.6   143    30.8   807.0    0.00 
 141   11:00   0.94   59.1    28   11.2   147    24.5   807.1    0.00 
 141   12:00   0.94   59.3    28   10.8   151    26.6   806.8    0.00 
 141   13:00   0.60   59.3    27    9.8   141    24.5   806.6    0.00 
 141   14:00   0.71   60.8    25   10.3   155    22.4   806.1    0.00 
 141   15:00   0.64   61.1    24   10.4   191    25.2   805.7    0.00 
 141   16:00   0.35   55.3    40   15.8   112    29.6   805.9    0.00 
 141   17:00   0.45   54.8    47   13.2   102    23.4   806.1    0.00 
 141   18:00   0.21   52.6    48   13.8   113    24.8   806.0    0.00 
 141   19:00   0.03   49.9    50    9.7   102    15.6   806.1    0.00 
 141   20:00   0.00   48.2    52    7.9    98    13.7   806.2    0.00 
 141   21:00   0.00   46.4    55    6.9   110    11.5   806.4    0.00 
 141   22:00   0.00   43.9    60    5.7   124     7.6   806.6    0.00 
 141   23:00   0.00   44.4    56    5.2   128    10.4   806.6    0.00 
 142    0:00   0.00   45.9    52    6.5   137    11.3   806.6    0.00 
 142    1:00   0.00   46.2    52    4.6   116     9.9   806.4    0.00 
 142    2:00   0.00   45.2    54    3.9   110     8.5   806.5    0.00 
 142    3:00   0.00   44.4    56    2.4   108     4.5   806.4    0.00 
 142    4:00   0.00   45.1    58    2.5    53    10.6   806.6    0.00 
 142    5:00   0.01   40.4    86    3.2    82     9.8   806.9    0.01 
 142    6:00   0.05   41.0    87    2.7   356     6.9   806.9    0.00 

Return to Timber Mountain graphs page.


Western Regional Climate Center,wrcc@dri.edu